Time;durP1;ratioP1;P1;durP2;ratioP2;P2;SDS_P1;SDS_P2;PMS_P1;PMS_P2;Temp;Humidity;BMP_temperature;BMP_pressure;BME280_temperature;BME280_humidity;BME280_pressure;Samples;Min_cycle;Max_cycle;Signal;HPM_P1;HPM_P2
2023/01/20 00:01:38;;;;;;;0.80;0.50;;;9.20;99.90;;;9.18;72.33;94017.81;5046850;28;20452;-59
2023/01/20 00:04:05;;;;;;;1.30;0.53;;;9.10;99.90;;;9.10;71.39;94052.69;5046498;28;20467;-57
2023/01/20 00:06:33;;;;;;;1.00;0.60;;;9.10;99.90;;;9.00;71.51;94038.81;5046819;28;20539;-58
2023/01/20 00:09:02;;;;;;;1.00;0.60;;;9.00;99.90;;;8.91;72.30;94022.19;5046684;28;20912;-54
2023/01/20 00:11:30;;;;;;;1.00;0.70;;;8.90;99.90;;;8.85;71.96;93991.34;5046825;28;20448;-58
2023/01/20 00:13:58;;;;;;;0.80;0.50;;;8.80;99.90;;;8.80;72.18;93918.38;5046604;28;20533;-56
2023/01/20 00:16:26;;;;;;;1.30;0.70;;;8.80;99.90;;;8.78;71.40;93855.59;5046665;28;20460;-57
2023/01/20 00:18:53;;;;;;;1.13;0.70;;;8.80;99.90;;;8.78;72.49;93808.41;5046773;28;20471;-56
2023/01/20 00:21:20;;;;;;;1.63;0.47;;;8.80;99.90;;;8.75;72.79;93813.97;5045566;28;20448;-59
2023/01/20 00:23:48;;;;;;;1.10;0.50;;;8.80;99.90;;;8.71;72.13;93827.53;5046257;28;20480;-58
2023/01/20 00:26:17;;;;;;;2.00;0.50;;;8.70;99.90;;;8.69;72.64;93838.16;5045909;28;20502;-59
2023/01/20 00:28:45;;;;;;;1.40;0.77;;;8.70;99.90;;;8.65;73.61;93854.34;5046640;28;20899;-57
2023/01/20 00:31:13;;;;;;;0.80;0.70;;;8.60;99.90;;;8.60;73.26;93860.06;5045964;28;20459;-57
2023/01/20 00:33:41;;;;;;;0.80;0.60;;;8.60;99.90;;;8.56;73.26;93850.84;5045978;28;20494;-55
2023/01/20 00:36:08;;;;;;;0.70;0.50;;;8.60;99.90;;;8.54;74.31;93848.38;5045725;28;20463;-57
2023/01/20 00:38:36;;;;;;;0.93;0.63;;;8.60;99.90;;;8.56;74.03;93845.59;5045900;28;20591;-55
2023/01/20 00:41:03;;;;;;;0.80;0.57;;;8.50;99.90;;;8.53;74.26;93841.47;5046142;28;20961;-57
2023/01/20 00:43:32;;;;;;;0.87;0.57;;;8.60;99.90;;;8.57;74.11;93837.59;5046118;28;20541;-56
2023/01/20 00:45:59;;;;;;;1.30;0.80;;;8.60;99.90;;;8.58;74.22;93810.41;5045651;28;20488;-58
2023/01/20 00:48:26;;;;;;;1.23;1.00;;;8.60;99.90;;;8.59;74.29;93835.63;5041686;28;20472;-57
2023/01/20 00:50:53;;;;;;;1.00;0.90;;;8.60;99.90;;;8.60;74.06;93834.66;5045478;28;20452;-57
2023/01/20 00:53:21;;;;;;;1.30;0.67;;;8.60;99.90;;;8.63;74.37;93830.06;5041801;28;20526;-59
2023/01/20 00:55:48;;;;;;;1.23;0.97;;;8.60;99.90;;;8.64;73.29;93835.16;5040805;28;20444;-55
2023/01/20 00:58:16;;;;;;;0.83;0.70;;;8.60;99.90;;;8.68;74.20;93843.56;5045269;28;20495;-56
2023/01/20 01:00:46;;;;;;;1.10;0.80;;;8.60;99.90;;;8.72;73.84;93839.63;5044882;28;20460;-55
2023/01/20 01:03:13;;;;;;;1.40;1.10;;;8.70;99.90;;;8.77;72.76;93822.47;5044200;28;20479;-57
2023/01/20 01:05:41;;;;;;;5.47;1.03;;;8.70;99.90;;;8.82;72.94;93832.50;5044920;28;20488;-57
2023/01/20 01:08:08;;;;;;;0.80;0.57;;;8.80;99.90;;;8.85;72.63;93813.84;5045496;28;20471;-57
2023/01/20 01:10:35;;;;;;;0.70;0.47;;;8.80;99.90;;;8.90;71.76;93824.69;5044974;28;20986;-57
2023/01/20 01:13:03;;;;;;;0.90;0.70;;;8.80;99.90;;;8.92;72.36;93830.59;5044877;28;20557;-56
2023/01/20 01:15:30;;;;;;;2.40;0.50;;;8.90;99.90;;;8.96;71.77;93837.16;5045390;28;20452;-58
2023/01/20 01:17:59;;;;;;;0.80;0.50;;;8.90;99.90;;;9.02;71.42;93821.81;5045833;28;20480;-56
2023/01/20 01:20:27;;;;;;;2.20;1.03;;;9.00;99.90;;;9.08;71.30;93823.81;5044930;28;20509;-57
2023/01/20 01:22:54;;;;;;;1.87;0.60;;;9.00;99.90;;;9.15;71.26;93819.56;5045308;28;20472;-58
2023/01/20 01:25:22;;;;;;;1.73;0.60;;;9.10;99.90;;;9.22;70.70;93825.84;5045367;28;20459;-57
2023/01/20 01:27:49;;;;;;;0.90;0.50;;;9.20;99.90;;;9.28;70.56;93826.97;5044807;28;21003;-56
2023/01/20 01:30:17;;;;;;;1.53;0.50;;;9.20;99.90;;;9.34;70.87;93821.09;5044648;28;20482;-56
2023/01/20 01:32:44;;;;;;;0.90;0.50;;;9.20;99.90;;;9.41;70.09;93827.38;5046478;28;20475;-56
2023/01/20 01:35:13;;;;;;;1.30;0.60;;;9.30;99.90;;;9.47;69.90;93818.88;5042419;28;20490;-56
2023/01/20 01:37:40;;;;;;;2.30;0.57;;;9.40;99.90;;;9.54;69.06;93805.91;5044960;28;20477;-56
2023/01/20 01:40:09;;;;;;;1.00;0.50;;;9.50;99.90;;;9.60;69.09;93812.34;5045309;28;20459;-56
2023/01/20 01:42:36;;;;;;;0.70;0.50;;;9.50;99.90;;;9.66;68.89;93809.88;5044848;28;20551;-57
2023/01/20 01:45:28;;;;;;;1.63;0.60;;;9.60;99.90;;;9.73;68.08;93796.13;5041549;28;20510;-57
2023/01/20 01:48:02;;;;;;;1.53;0.80;;;9.70;99.90;;;9.78;68.44;93809.59;5042061;28;20495;-57
2023/01/20 01:50:37;;;;;;;0.80;0.70;;;9.70;99.90;;;9.84;68.51;93824.72;5043422;28;20505;-56
2023/01/20 01:53:04;;;;;;;0.80;0.50;;;9.70;99.90;;;9.87;68.36;93811.25;5039559;28;20579;-55
2023/01/20 01:55:34;;;;;;;1.10;0.83;;;9.80;99.90;;;9.91;68.20;93812.56;5039446;28;20444;-54
2023/01/20 01:58:01;;;;;;;2.40;0.93;;;9.80;99.90;;;9.97;68.74;93840.00;5039562;28;20468;-57
2023/01/20 02:00:29;;;;;;;3.23;0.63;;;9.90;99.90;;;10.00;68.18;93821.28;5044895;28;20470;-54
2023/01/20 02:02:56;;;;;;;0.80;0.50;;;9.90;99.90;;;10.02;68.31;93812.28;5044913;28;20480;-57
2023/01/20 02:05:24;;;;;;;0.90;0.60;;;9.90;99.90;;;10.03;68.04;93813.91;5044320;28;20460;-57
2023/01/20 02:07:52;;;;;;;1.10;0.70;;;10.00;99.90;;;10.04;67.77;93807.66;5044610;28;20495;-56
2023/01/20 02:10:20;;;;;;;0.90;0.80;;;10.00;99.90;;;10.05;67.79;93817.19;5044912;28;20444;-56
2023/01/20 02:12:50;;;;;;;2.63;0.67;;;10.00;99.90;;;10.08;68.08;93805.53;5048782;28;20474;-57
2023/01/20 02:15:21;;;;;;;4.97;0.80;;;10.00;99.90;;;10.09;67.97;93801.13;5048948;28;20483;-56
2023/01/20 02:17:58;;;;;;;0.90;0.50;;;10.00;99.90;;;10.08;67.66;93799.47;5048203;28;20550;-58
2023/01/20 02:20:58;;;;;;;0.80;0.60;;;10.00;99.90;;;10.05;67.42;93790.09;5048732;28;20447;-57
2023/01/20 02:23:42;;;;;;;0.80;0.50;;;10.00;99.90;;;9.98;67.36;93791.75;5003178;28;20995;-57
2023/01/20 02:26:29;;;;;;;1.83;0.50;;;9.90;99.90;;;9.90;67.42;93791.72;5047051;28;20487;-56
2023/01/20 02:29:22;;;;;;;2.60;0.73;;;9.90;99.90;;;9.81;67.27;93802.22;5046757;28;20486;-57
2023/01/20 02:32:19;;;;;;;7.60;0.70;;;9.80;99.90;;;9.72;67.57;93800.56;5044359;28;20466;-57
2023/01/20 02:34:50;;;;;;;2.33;0.80;;;9.70;99.90;;;9.65;67.80;93776.75;5045031;28;20455;-56
2023/01/20 02:37:19;;;;;;;1.03;0.70;;;9.70;99.90;;;9.58;67.60;93786.25;5043762;28;20459;-56
2023/01/20 02:39:56;;;;;;;1.10;0.73;;;9.60;99.90;;;9.54;68.16;93773.59;5044173;28;20448;-55
2023/01/20 02:42:25;;;;;;;0.80;0.60;;;9.50;99.90;;;9.47;68.41;93783.94;5041188;28;20463;-57
2023/01/20 02:44:54;;;;;;;0.80;0.67;;;9.50;99.90;;;9.44;68.57;93776.38;5048288;28;20517;-56
2023/01/20 02:47:24;;;;;;;0.90;0.60;;;9.40;99.90;;;9.41;68.59;93763.56;5040770;28;20495;-58
2023/01/20 02:49:54;;;;;;;1.20;0.70;;;9.40;99.90;;;9.37;68.61;93763.06;5044042;28;20464;-62
2023/01/20 02:52:24;;;;;;;0.80;0.60;;;9.40;99.90;;;9.35;68.21;93777.34;5044097;28;20486;-56
2023/01/20 02:54:53;;;;;;;2.97;0.70;;;9.30;99.90;;;9.31;69.20;93761.06;5046129;28;20448;-57
2023/01/20 02:57:25;;;;;;;1.10;1.00;;;9.30;99.90;;;9.27;68.86;93755.31;5045161;28;20452;-56
2023/01/20 02:59:56;;;;;;;1.10;0.60;;;9.30;99.90;;;9.26;68.93;93755.47;5046644;28;20463;-56
2023/01/20 03:02:26;;;;;;;0.90;0.70;;;9.20;99.90;;;9.25;69.28;93735.47;5047012;28;20452;-57
2023/01/20 03:04:59;;;;;;;2.13;1.00;;;9.30;99.90;;;9.26;69.73;93731.88;5047102;28;20979;-57
2023/01/20 03:07:27;;;;;;;0.90;0.67;;;9.20;99.90;;;9.25;69.37;93738.94;5046503;28;20491;-55
2023/01/20 03:09:57;;;;;;;0.80;0.50;;;9.20;99.90;;;9.23;69.74;93747.94;5047651;28;20448;-57
2023/01/20 03:12:28;;;;;;;2.50;1.60;;;9.20;99.90;;;9.22;70.68;93752.38;5042703;28;20467;-57
2023/01/20 03:14:55;;;;;;;1.00;0.60;;;9.20;99.90;;;9.22;69.92;93755.00;5047435;28;20451;-56
2023/01/20 03:17:24;;;;;;;1.23;0.60;;;9.20;99.90;;;9.24;69.74;93746.97;5045823;28;20467;-55
2023/01/20 03:19:51;;;;;;;0.80;0.70;;;9.20;99.90;;;9.23;69.77;93753.19;5043683;28;20464;-56
2023/01/20 03:22:18;;;;;;;1.03;0.57;;;9.20;99.90;;;9.22;70.67;93755.00;5044719;28;20479;-55
2023/01/20 03:24:46;;;;;;;0.80;0.50;;;9.20;99.90;;;9.22;69.32;93749.75;5044953;28;20463;-56
2023/01/20 03:27:13;;;;;;;0.70;0.50;;;9.20;99.90;;;9.23;69.83;93753.19;5046250;28;20499;-56
2023/01/20 03:29:40;;;;;;;0.80;0.70;;;9.20;99.90;;;9.21;70.32;93755.16;5046769;28;20464;-55
2023/01/20 03:32:09;;;;;;;0.80;0.60;;;9.20;99.90;;;9.17;70.24;93746.78;5045143;28;20538;-55
2023/01/20 03:34:39;;;;;;;0.90;0.70;;;9.20;99.90;;;9.16;70.13;93753.00;5046515;28;20487;-57
2023/01/20 03:37:06;;;;;;;2.60;0.90;;;9.20;99.90;;;9.17;70.92;93752.03;5044781;28;20444;-55
2023/01/20 03:39:38;;;;;;;1.83;0.83;;;9.10;99.90;;;9.18;70.72;93751.03;5046378;28;20572;-55
2023/01/20 03:42:07;;;;;;;1.00;0.60;;;9.20;99.90;;;9.18;70.54;93750.22;5044981;28;20460;-57
2023/01/20 03:44:53;;;;;;;0.90;0.80;;;9.20;99.90;;;9.17;70.92;93754.66;5044830;28;20911;-56
2023/01/20 03:47:27;;;;;;;2.17;0.60;;;9.20;99.90;;;9.15;71.91;93759.22;5043618;28;20476;-57
2023/01/20 03:50:02;;;;;;;3.57;0.80;;;9.10;99.90;;;9.14;72.10;93757.59;5047164;28;20454;-56
2023/01/20 03:52:33;;;;;;;1.77;0.80;;;9.10;99.90;;;9.13;72.13;93742.81;5045658;28;20810;-56
2023/01/20 03:55:03;;;;;;;1.20;1.03;;;9.10;99.90;;;9.12;70.90;93738.56;5041803;28;20628;-56
2023/01/20 03:57:34;;;;;;;4.70;1.13;;;9.10;99.90;;;9.09;71.90;93738.88;5042567;28;20455;-57
2023/01/20 04:00:02;;;;;;;3.43;0.93;;;9.10;99.90;;;9.05;71.36;93734.94;5045623;28;20486;-57
2023/01/20 04:02:29;;;;;;;3.03;0.90;;;9.10;99.90;;;9.07;71.97;93725.91;5046561;28;20456;-57
2023/01/20 04:04:57;;;;;;;2.40;0.93;;;9.00;99.90;;;9.09;72.36;93723.13;5044644;28;20953;-56
2023/01/20 04:07:25;;;;;;;1.73;1.10;;;9.10;99.90;;;9.12;72.18;93714.94;5046143;28;21037;-57
2023/01/20 04:09:54;;;;;;;1.50;1.23;;;9.10;99.90;;;9.13;72.14;93712.16;5045149;28;20439;-56
2023/01/20 04:12:21;;;;;;;0.90;0.80;;;9.10;99.90;;;9.18;72.69;93713.50;5046483;28;20529;-56
2023/01/20 04:14:48;;;;;;;2.10;1.20;;;9.10;99.90;;;9.22;72.80;93704.34;5046359;28;20452;-55
2023/01/20 04:17:16;;;;;;;2.10;1.03;;;9.10;99.90;;;9.22;72.41;93720.88;5046231;28;20453;-56
2023/01/20 04:19:43;;;;;;;2.23;0.97;;;9.20;99.90;;;9.21;72.46;93703.50;5045994;28;20508;-56
2023/01/20 04:22:16;;;;;;;1.87;1.10;;;9.20;99.90;;;9.21;72.97;93697.44;5046148;28;20952;-59
2023/01/20 04:24:45;;;;;;;1.43;1.03;;;9.20;99.90;;;9.19;73.30;93694.97;5046404;28;20798;-56
2023/01/20 04:27:12;;;;;;;2.30;1.60;;;9.10;99.90;;;9.17;73.58;93689.06;5044818;28;20487;-56
2023/01/20 04:29:40;;;;;;;1.60;1.20;;;9.10;99.90;;;9.20;73.42;93683.50;5042301;28;20449;-57
2023/01/20 04:32:09;;;;;;;1.60;1.50;;;9.20;99.90;;;9.21;74.08;93684.31;5043793;28;20459;-55
2023/01/20 04:34:36;;;;;;;2.33;1.90;;;9.20;99.90;;;9.25;74.18;93693.50;5044979;28;21008;-57
2023/01/20 04:37:04;;;;;;;3.80;2.37;;;9.20;99.90;;;9.27;74.21;93681.88;5045763;28;20456;-56
2023/01/20 04:39:32;;;;;;;13.60;4.67;;;9.20;99.90;;;9.29;74.01;93682.50;5045111;28;20837;-59
2023/01/20 04:42:00;;;;;;;4.10;3.57;;;9.20;99.90;;;9.31;74.12;93693.69;5042762;28;20448;-55
2023/01/20 04:44:27;;;;;;;4.40;3.20;;;9.30;99.90;;;9.35;73.55;93702.03;5042657;28;20484;-57
2023/01/20 04:46:57;;;;;;;2.93;2.00;;;9.30;99.90;;;9.36;74.75;93701.06;5042868;28;20576;-57
2023/01/20 04:49:24;;;;;;;5.57;2.40;;;9.30;99.90;;;9.40;74.12;93714.69;5041030;28;21463;-55
2023/01/20 04:51:51;;;;;;;68.77;32.33;;;9.30;99.90;;;9.42;74.07;93720.59;5043418;28;20463;-56
2023/01/20 04:54:19;;;;;;;4.50;3.63;;;9.30;99.90;;;9.44;73.84;93723.88;5042908;28;20487;-58
2023/01/20 04:56:48;;;;;;;2.90;2.53;;;9.40;99.90;;;9.45;74.37;93720.25;5046277;28;20475;-56
2023/01/20 04:59:15;;;;;;;1.87;1.60;;;9.40;99.90;;;9.50;74.60;93723.25;5043799;28;20932;-57
2023/01/20 05:01:42;;;;;;;1.30;1.20;;;9.40;99.90;;;9.52;74.13;93739.66;5045718;28;20522;-57
2023/01/20 05:04:09;;;;;;;2.93;2.23;;;9.50;99.90;;;9.56;74.79;93751.47;5043299;28;20476;-57
2023/01/20 05:06:37;;;;;;;3.27;2.07;;;9.50;99.90;;;9.62;74.75;93753.44;5046247;28;20483;-57
2023/01/20 05:09:04;;;;;;;2.77;1.87;;;9.50;99.90;;;9.67;74.20;93750.34;5043113;28;20480;-57
2023/01/20 05:11:31;;;;;;;5.37;1.23;;;9.60;99.90;;;9.71;74.32;93754.28;5042649;28;20459;-55
2023/01/20 05:14:00;;;;;;;3.30;1.80;;;9.60;99.90;;;9.76;74.54;93759.03;5042815;28;20483;-56
2023/01/20 05:16:30;;;;;;;2.60;2.40;;;9.70;99.90;;;9.79;74.63;93748.19;5042185;28;20467;-56
2023/01/20 05:18:58;;;;;;;6.53;3.13;;;9.70;99.90;;;9.82;74.54;93745.25;5044018;28;20471;-60
2023/01/20 05:21:25;;;;;;;6.33;3.37;;;9.70;99.90;;;9.83;74.42;93734.59;5041402;28;20460;-57
2023/01/20 05:23:54;;;;;;;8.23;4.57;;;9.70;99.90;;;9.85;74.28;93726.53;5039985;28;20475;-57
2023/01/20 05:26:22;;;;;;;4.33;3.90;;;9.80;99.90;;;9.86;74.68;93736.06;5045746;28;20490;-56
2023/01/20 05:28:49;;;;;;;3.20;2.50;;;9.80;99.90;;;9.86;74.81;93749.22;5045367;28;20553;-57
2023/01/20 05:31:18;;;;;;;4.27;2.83;;;9.80;99.90;;;9.84;74.70;93759.88;5043335;28;20461;-57
2023/01/20 05:33:45;;;;;;;2.70;2.50;;;9.80;99.90;;;9.84;74.28;93759.06;5043823;28;20471;-57
2023/01/20 05:36:12;;;;;;;3.50;2.30;;;9.70;99.90;;;9.84;74.46;93764.31;5044885;28;20447;-56
2023/01/20 05:38:39;;;;;;;3.37;2.13;;;9.80;99.90;;;9.84;74.36;93772.19;5045044;28;20507;-55
2023/01/20 05:41:08;;;;;;;5.77;2.67;;;9.80;99.90;;;9.83;74.63;93762.66;5044842;28;20452;-57
2023/01/20 05:43:35;;;;;;;5.20;3.00;;;9.80;99.90;;;9.80;74.25;93755.09;5044782;28;20460;-56
2023/01/20 05:46:02;;;;;;;10.23;3.03;;;9.70;99.90;;;9.84;74.24;93745.94;5046121;28;20517;-57
2023/01/20 05:48:31;;;;;;;4.50;3.30;;;9.80;99.90;;;9.85;74.64;93721.28;5048938;28;20586;-56
2023/01/20 05:50:58;;;;;;;7.73;3.30;;;9.80;99.90;;;9.84;74.85;93704.72;5047899;28;20455;-57
2023/01/20 05:53:25;;;;;;;4.77;3.60;;;9.80;99.90;;;9.82;74.71;93695.34;5048023;28;21000;-57
2023/01/20 05:56:00;;;;;;;5.27;4.20;;;9.70;99.90;;;9.79;74.81;93708.81;5045381;28;20451;-56
2023/01/20 05:58:28;;;;;;;8.33;4.63;;;9.70;99.90;;;9.74;74.29;93727.69;5046413;28;20550;-57
2023/01/20 06:00:55;;;;;;;3.83;3.30;;;9.60;99.90;;;9.67;74.52;93696.03;5049076;28;21006;-57
2023/01/20 06:03:22;;;;;;;9.67;3.30;;;9.60;99.90;;;9.63;74.91;93743.75;5048854;28;20471;-58
2023/01/20 06:05:51;;;;;;;6.10;3.77;;;9.60;99.90;;;9.59;74.97;93758.19;5049164;28;20480;-56
2023/01/20 06:08:18;;;;;;;5.63;3.20;;;9.50;99.90;;;9.55;75.64;93713.06;5047628;28;20491;-56
2023/01/20 06:10:45;;;;;;;4.07;3.50;;;9.50;99.90;;;9.53;75.19;93730.78;5048912;28;20452;-57
2023/01/20 06:13:12;;;;;;;7.00;3.80;;;9.50;99.90;;;9.51;75.45;93740.63;5048415;28;21254;-57
2023/01/20 06:15:40;;;;;;;2.77;2.53;;;9.40;99.90;;;9.52;76.44;93710.78;5048066;28;20566;-58
2023/01/20 06:18:11;;;;;;;5.47;3.77;;;9.40;99.90;;;9.50;75.95;93712.75;5048861;28;20475;-58
2023/01/20 06:20:38;;;;;;;3.93;3.20;;;9.40;99.90;;;9.45;75.37;93730.75;5048912;28;20440;-56
2023/01/20 06:23:07;;;;;;;3.33;3.13;;;9.40;99.90;;;9.48;75.11;93761.94;5048540;28;20539;-57
2023/01/20 06:25:34;;;;;;;6.00;3.60;;;9.40;99.90;;;9.46;75.49;93763.91;5048631;28;20454;-57
2023/01/20 06:28:02;;;;;;;6.73;4.47;;;9.40;99.90;;;9.44;75.54;93752.75;5048469;28;20557;-57
2023/01/20 06:30:29;;;;;;;6.60;5.13;;;9.40;99.90;;;9.44;75.72;93737.81;5048330;28;20980;-56
2023/01/20 06:32:56;;;;;;;7.80;5.87;;;9.40;99.90;;;9.47;76.10;93737.50;5047138;28;20613;-58
2023/01/20 06:35:24;;;;;;;17.80;7.60;;;9.40;99.90;;;9.49;75.55;93727.66;5048384;28;20992;-56
2023/01/20 06:37:51;;;;;;;8.97;7.77;;;9.40;99.90;;;9.51;76.00;93730.13;5048022;28;20483;-57
2023/01/20 06:40:20;;;;;;;9.50;5.50;;;9.40;99.90;;;9.56;75.52;93737.50;5048386;28;20448;-58
2023/01/20 06:42:47;;;;;;;7.13;5.47;;;9.50;99.90;;;9.59;75.72;93731.94;5048069;28;20474;-57
2023/01/20 06:45:15;;;;;;;10.27;7.03;;;9.50;99.90;;;9.64;75.64;93729.66;5048009;28;20533;-57
2023/01/20 06:47:43;;;;;;;15.20;7.10;;;9.50;99.90;;;9.65;75.42;93729.50;5047955;28;20496;-56
2023/01/20 06:50:11;;;;;;;16.30;7.90;;;9.60;99.90;;;9.65;75.43;93721.63;5047751;28;20460;-57
2023/01/20 06:52:38;;;;;;;11.30;8.20;;;9.60;99.90;;;9.65;75.41;93724.25;5047813;28;20475;-58
2023/01/20 06:55:06;;;;;;;20.17;9.60;;;9.60;99.90;;;9.66;75.30;93722.44;5047701;28;20447;-56
2023/01/20 06:57:35;;;;;;;18.00;12.03;;;9.60;99.90;;;9.69;75.69;93730.81;5048144;28;20472;-58
2023/01/20 07:00:02;;;;;;;35.80;17.73;;;9.60;99.90;;;9.71;76.38;93725.38;5044246;28;20813;-57
2023/01/20 07:02:30;;;;;;;29.47;14.03;;;9.60;99.90;;;9.73;76.34;93727.84;5046709;28;20455;-55
2023/01/20 07:04:58;;;;;;;39.27;19.90;;;9.60;99.90;;;9.78;76.58;93720.31;5047557;28;20459;-57
2023/01/20 07:07:26;;;;;;;34.53;20.03;;;9.70;99.90;;;9.77;75.73;93739.69;5047997;28;20452;-57
2023/01/20 07:09:54;;;;;;;34.00;18.20;;;9.70;99.90;;;9.74;76.11;93708.50;5044203;28;20493;-56
2023/01/20 07:12:22;;;;;;;21.63;14.93;;;9.70;99.90;;;9.73;76.08;93718.19;5047640;28;20448;-56
2023/01/20 07:14:50;;;;;;;25.83;15.77;;;9.60;99.90;;;9.73;75.91;93709.47;5047329;28;20460;-57
2023/01/20 07:17:18;;;;;;;20.10;12.83;;;9.60;99.90;;;9.73;75.66;93718.19;5048289;28;20688;-57
2023/01/20 07:19:45;;;;;;;21.03;13.23;;;9.60;99.90;;;9.74;76.16;93722.44;5047612;28;20774;-55
2023/01/20 07:22:12;;;;;;;23.33;12.80;;;9.70;99.90;;;9.75;75.82;93720.66;5048087;28;20452;-56
2023/01/20 07:24:39;;;;;;;18.50;11.80;;;9.70;99.90;;;9.75;76.09;93720.66;5047947;28;20948;-58
2023/01/20 07:27:07;;;;;;;17.60;11.10;;;9.70;99.90;;;9.76;75.99;93717.03;5047491;28;20452;-59
2023/01/20 07:29:34;;;;;;;22.00;12.70;;;9.70;99.90;;;9.76;76.03;93711.78;5047368;28;20614;-57
2023/01/20 07:32:02;;;;;;;19.13;12.37;;;9.70;99.90;;;9.73;75.72;93706.84;5046776;28;20455;-57
2023/01/20 07:34:30;;;;;;;19.07;13.73;;;9.70;99.90;;;9.73;75.49;93714.72;5047045;28;20480;-57
2023/01/20 07:37:00;;;;;;;20.00;12.97;;;9.60;99.90;;;9.72;76.05;93710.47;5047377;28;20463;-56
2023/01/20 07:39:27;;;;;;;18.80;13.57;;;9.60;99.90;;;9.72;75.70;93702.59;5047824;28;20463;-57
2023/01/20 07:41:54;;;;;;;21.13;10.80;;;9.70;99.90;;;9.68;75.84;93692.41;5046999;28;20463;-57
2023/01/20 07:44:21;;;;;;;11.07;7.03;;;9.60;99.90;;;9.64;75.52;93688.47;5046699;28;21050;-56
2023/01/20 07:46:50;;;;;;;13.77;8.40;;;9.60;99.90;;;9.60;76.14;93687.16;5046699;28;20467;-56
2023/01/20 07:49:19;;;;;;;7.67;6.30;;;9.60;99.90;;;9.57;75.81;93681.41;5046852;28;20496;-56
2023/01/20 07:51:46;;;;;;;13.00;8.40;;;9.50;99.90;;;9.55;75.77;93686.81;5046884;28;20456;-56
2023/01/20 07:54:13;;;;;;;11.70;8.33;;;9.50;99.90;;;9.53;76.34;93688.81;5046833;28;20471;-58
2023/01/20 07:56:40;;;;;;;13.73;9.00;;;9.50;99.90;;;9.52;75.87;93680.09;5046644;28;20452;-57
2023/01/20 07:59:08;;;;;;;10.30;7.73;;;9.50;99.90;;;9.55;76.42;93667.63;5046831;28;21078;-56
2023/01/20 08:01:35;;;;;;;24.47;12.60;;;9.50;99.90;;;9.57;76.74;93666.47;5043145;28;20456;-56
2023/01/20 08:04:03;;;;;;;18.20;10.90;;;9.50;99.90;;;9.60;76.60;93681.91;5045977;28;20476;-58
2023/01/20 08:06:31;;;;;;;16.07;10.43;;;9.50;99.90;;;9.60;75.82;93691.59;5046105;28;20620;-56
2023/01/20 08:09:00;;;;;;;10.93;8.80;;;9.50;99.90;;;9.56;75.77;93685.84;5042638;28;21024;-57
2023/01/20 08:11:27;;;;;;;9.70;6.63;;;9.50;99.90;;;9.51;75.93;93661.88;5046157;28;20872;-56
2023/01/20 08:13:55;;;;;;;11.30;7.13;;;9.50;99.90;;;9.48;76.37;93660.41;5042406;28;20475;-56
2023/01/20 08:16:22;;;;;;;7.57;6.27;;;9.50;99.90;;;9.48;75.64;93633.31;5046509;28;20460;-57
2023/01/20 08:18:49;;;;;;;9.17;6.50;;;9.40;99.90;;;9.49;76.42;93637.59;5042949;28;20468;-57
2023/01/20 08:21:19;;;;;;;5.17;4.57;;;9.50;99.90;;;9.50;75.88;93655.81;5043387;28;20456;-57
2023/01/20 08:23:47;;;;;;;7.83;4.73;;;9.50;99.90;;;9.51;75.94;93661.88;5043000;28;20528;-58
2023/01/20 08:26:15;;;;;;;5.80;4.60;;;9.50;99.90;;;9.50;75.82;93670.75;5046246;28;20547;-57
2023/01/20 08:28:42;;;;;;;10.20;4.23;;;9.50;99.90;;;9.47;75.41;93676.31;5046278;28;20591;-56
2023/01/20 08:31:11;;;;;;;4.40;3.33;;;9.40;99.90;;;9.44;75.57;93666.97;5045864;28;20532;-57
2023/01/20 08:33:40;;;;;;;3.80;3.47;;;9.40;99.90;;;9.46;75.07;93674.66;5045729;28;20468;-57
2023/01/20 08:36:09;;;;;;;5.17;3.00;;;9.40;99.90;;;9.47;74.97;93678.94;5046061;28;20458;-57
2023/01/20 08:38:36;;;;;;;4.80;3.40;;;9.40;99.90;;;9.47;74.97;93671.88;5046839;28;20468;-56
2023/01/20 08:41:07;;;;;;;7.50;3.70;;;9.40;99.90;;;9.49;74.84;93659.41;5045416;28;20452;-55
2023/01/20 08:43:34;;;;;;;4.20;3.53;;;9.50;99.90;;;9.55;74.53;93641.38;5046605;28;20479;-57
2023/01/20 08:46:02;;;;;;;5.87;3.67;;;9.50;99.90;;;9.59;74.80;93617.28;5045907;28;20456;-57
2023/01/20 08:48:29;;;;;;;3.83;3.17;;;9.50;99.90;;;9.66;74.74;93617.41;5045784;28;20522;-58
2023/01/20 08:50:56;;;;;;;6.60;4.10;;;9.60;99.90;;;9.71;74.69;93622.19;5045557;28;20448;-56
2023/01/20 08:53:24;;;;;;;5.80;4.50;;;9.60;99.90;;;9.76;74.95;93612.00;5045275;28;20474;-55
2023/01/20 08:55:56;;;;;;;8.03;5.13;;;9.70;99.90;;;9.80;74.90;93602.81;5045322;28;20471;-57
2023/01/20 08:58:24;;;;;;;10.80;6.80;;;9.70;99.90;;;9.92;74.79;93598.03;5045101;28;21028;-57
2023/01/20 09:00:52;;;;;;;6.33;5.80;;;9.80;99.90;;;10.00;74.91;93598.00;5045752;28;20456;-57
2023/01/20 09:03:19;;;;;;;11.70;7.90;;;9.90;99.90;;;10.10;74.91;93598.66;5043767;28;20491;-58
2023/01/20 09:05:46;;;;;;;8.53;6.23;;;10.00;99.90;;;10.17;74.35;93610.09;5045685;28;20460;-59
2023/01/20 09:08:14;;;;;;;7.67;6.90;;;10.10;99.90;;;10.22;73.99;93604.34;5043117;28;20495;-57
2023/01/20 09:10:41;;;;;;;10.00;7.57;;;10.10;99.90;;;10.27;73.92;93604.69;5045401;28;20447;-57
2023/01/20 09:13:08;;;;;;;9.53;6.60;;;10.20;99.90;;;10.34;74.17;93610.91;5045083;28;20479;-57
2023/01/20 09:15:37;;;;;;;10.20;6.90;;;10.20;99.90;;;10.42;73.94;93611.88;5041637;28;20459;-58
2023/01/20 09:18:05;;;;;;;11.57;5.80;;;10.30;99.90;;;10.51;73.32;93616.13;5041698;28;21115;-57
2023/01/20 09:20:32;;;;;;;7.83;5.17;;;10.40;99.90;;;10.52;73.46;93609.88;5044117;28;20960;-57
2023/01/20 09:23:02;;;;;;;6.50;4.73;;;10.40;99.90;;;10.53;73.21;93616.75;5044842;28;20487;-56
2023/01/20 09:25:29;;;;;;;5.27;4.67;;;10.50;99.90;;;10.54;73.46;93616.59;5045374;28;20854;-57
2023/01/20 09:27:57;;;;;;;2.63;2.43;;;10.50;99.90;;;10.57;72.31;93615.44;5044994;28;20533;-55
2023/01/20 09:30:24;;;;;;;4.83;3.43;;;10.50;99.90;;;10.58;72.68;93617.06;5045582;28;20535;-58
2023/01/20 09:32:55;;;;;;;5.57;2.77;;;10.50;99.90;;;10.61;72.39;93592.25;5043893;28;20514;-56
2023/01/20 09:35:22;;;;;;;3.40;3.00;;;10.50;99.90;;;10.64;72.68;93587.44;5045260;28;20965;-56
2023/01/20 09:46:22;;;;;;;3.60;3.30;;;10.70;99.90;;;10.89;72.27;93584.69;5043992;28;20503;-57
2023/01/20 09:54:32;;;;;;;5.63;4.33;;;10.80;99.90;;;10.90;70.99;93589.78;5042850;28;20963;-57
2023/01/20 09:57:00;;;;;;;5.73;2.40;;;10.80;99.90;;;10.88;70.38;93596.22;5045201;28;20439;-57
2023/01/20 09:59:30;;;;;;;2.00;1.90;;;10.80;99.90;;;10.83;70.37;93588.00;5044708;28;20487;-56
2023/01/20 10:01:59;;;;;;;1.97;1.50;;;10.80;99.90;;;10.75;70.05;93580.97;5043907;28;20459;-57
2023/01/20 10:04:32;;;;;;;5.93;1.70;;;10.70;99.90;;;10.67;70.32;93579.22;5044971;28;20491;-57
2023/01/20 10:07:03;;;;;;;1.80;1.70;;;10.70;99.90;;;10.67;70.84;93587.09;5045301;28;20448;-57
2023/01/20 10:09:33;;;;;;;4.63;2.07;;;10.60;99.90;;;10.70;70.77;93581.50;5042572;28;20491;-57
2023/01/20 10:12:12;;;;;;;4.80;2.27;;;10.60;99.90;;;10.72;70.80;93571.66;5044919;28;20431;-57
2023/01/20 10:14:43;;;;;;;4.73;2.23;;;10.70;99.90;;;10.76;71.12;93583.44;5044973;28;20870;-57
2023/01/20 10:17:14;;;;;;;3.30;2.43;;;10.70;99.90;;;10.85;71.51;93576.34;5045401;28;20723;-57
2023/01/20 10:19:48;;;;;;;3.47;2.13;;;10.70;99.90;;;11.07;71.78;93560.75;5044838;28;20440;-56
2023/01/20 10:22:18;;;;;;;3.53;3.20;;;10.90;99.90;;;11.62;71.44;93537.78;5041359;28;20447;-57
2023/01/20 10:24:51;;;;;;;4.90;3.30;;;11.40;99.90;;;12.43;70.49;93526.53;5044869;28;20470;-56
2023/01/20 10:27:18;;;;;;;5.13;3.07;;;12.00;99.90;;;13.08;68.23;93535.38;5044670;28;20452;-57
2023/01/20 10:29:49;;;;;;;3.43;2.83;;;12.60;99.90;;;13.59;67.17;93542.34;5044765;28;21024;-56
2023/01/20 10:32:23;;;;;;;3.83;3.30;;;13.10;99.90;;;14.14;66.54;93535.41;5046070;28;20440;-56
2023/01/20 10:34:54;;;;;;;4.93;3.50;;;13.70;99.90;;;14.65;65.33;93541.38;5047300;28;20573;-57
2023/01/20 10:37:22;;;;;;;7.33;3.87;;;14.10;99.90;;;14.90;64.83;93546.94;5044576;28;21037;-57
2023/01/20 10:39:52;;;;;;;10.30;3.67;;;14.50;99.90;;;15.00;64.14;93539.47;5044143;28;20456;-58
2023/01/20 10:42:20;;;;;;;8.00;4.20;;;14.70;99.90;;;14.96;63.38;93540.84;5043877;28;20452;-57
2023/01/20 10:44:49;;;;;;;11.70;3.20;;;14.70;99.90;;;14.84;63.46;93535.34;5048085;28;20451;-56
2023/01/20 10:47:25;;;;;;;2.97;2.77;;;14.70;99.90;;;14.63;63.68;93538.91;5048469;28;20452;-57
2023/01/20 10:50:32;;;;;;;7.60;3.60;;;14.50;99.90;;;14.41;63.51;93535.56;5048111;28;20517;-55